createdAt,value
2017-11-21T00:00:57.338Z,2.97
2017-11-21T00:03:24.841Z,2.70
2017-11-21T00:05:52.332Z,2.93
2017-11-21T00:08:19.912Z,2.50
2017-11-21T00:10:47.408Z,2.30
2017-11-21T00:13:14.924Z,1.90
2017-11-21T00:15:42.585Z,2.60
2017-11-21T00:18:10.098Z,2.07
2017-11-21T00:20:37.825Z,2.20
2017-11-21T00:23:05.464Z,2.73
2017-11-21T00:25:32.969Z,2.23
2017-11-21T00:28:00.467Z,2.30
2017-11-21T00:30:28.049Z,2.40
2017-11-21T00:32:55.565Z,1.93
2017-11-21T00:35:23.064Z,2.57
2017-11-21T00:37:50.737Z,2.10
2017-11-21T00:40:18.243Z,2.17
2017-11-21T00:42:45.745Z,2.07
2017-11-21T00:45:13.293Z,2.20
2017-11-21T00:47:40.792Z,2.10
2017-11-21T00:50:09.055Z,1.70
2017-11-21T00:52:37.376Z,2.27
2017-11-21T00:55:04.878Z,2.73
2017-11-21T00:57:32.396Z,2.60
2017-11-21T01:00:00.036Z,2.30
2017-11-21T01:02:27.555Z,2.20
2017-11-21T01:04:55.069Z,2.00
2017-11-21T01:07:23.247Z,1.80
2017-11-21T01:09:50.527Z,1.67
2017-11-21T01:12:18.020Z,2.23
2017-11-21T01:14:45.590Z,1.93
2017-11-21T01:17:13.143Z,2.10
2017-11-21T01:19:40.656Z,1.30
2017-11-21T01:22:08.221Z,1.80
2017-11-21T01:24:35.736Z,1.10
2017-11-21T01:27:03.227Z,1.30
2017-11-21T01:29:30.790Z,2.10
2017-11-21T01:31:58.287Z,1.80
2017-11-21T01:34:26.552Z,1.60
2017-11-21T01:36:54.108Z,1.40
2017-11-21T01:39:21.619Z,1.37
2017-11-21T01:41:49.120Z,1.30
2017-11-21T01:44:16.661Z,1.33
2017-11-21T01:46:44.208Z,1.40
2017-11-21T01:49:11.716Z,1.37
2017-11-21T01:51:39.506Z,1.37
2017-11-21T01:54:07.003Z,2.20
2017-11-21T01:56:34.501Z,1.53
2017-11-21T01:59:02.828Z,2.03
2017-11-21T02:01:30.332Z,1.93
2017-11-21T02:03:57.836Z,1.80
2017-11-21T02:06:25.368Z,1.57
2017-11-21T02:08:52.888Z,1.47
2017-11-21T02:11:20.487Z,1.77
2017-11-21T02:13:48.002Z,1.83
2017-11-21T02:16:15.499Z,1.47
2017-11-21T02:18:43.791Z,2.00
2017-11-21T02:21:11.401Z,1.90
2017-11-21T02:23:38.909Z,2.53
2017-11-21T02:26:06.488Z,2.20
2017-11-21T02:28:33.988Z,1.63
2017-11-21T02:31:01.485Z,1.40
2017-11-21T02:33:29.149Z,1.93
2017-11-21T02:35:56.685Z,1.50
2017-11-21T02:38:24.183Z,1.60
2017-11-21T02:40:51.833Z,1.40
2017-11-21T02:43:19.356Z,1.93
2017-11-21T02:45:46.869Z,1.83
2017-11-21T02:48:14.745Z,1.67
2017-11-21T02:50:43.007Z,1.80
2017-11-21T02:53:10.508Z,1.50
2017-11-21T02:55:38.052Z,1.30
2017-11-21T02:58:05.930Z,1.70
2017-11-21T03:00:33.436Z,1.97
2017-11-21T03:03:00.979Z,1.80
2017-11-21T03:05:28.484Z,1.80
2017-11-21T03:07:55.996Z,1.80
2017-11-21T03:10:24.020Z,1.90
2017-11-21T03:12:51.919Z,2.10
2017-11-21T03:15:19.455Z,2.10
2017-11-21T03:17:46.989Z,2.10
2017-11-21T03:20:26.812Z,2.07
2017-11-21T03:23:06.101Z,1.33
2017-11-21T03:39:00.130Z,1.70
2017-11-21T03:41:27.671Z,1.70
2017-11-21T03:43:55.177Z,2.20
2017-11-21T03:46:22.725Z,1.80
2017-11-21T03:48:50.502Z,1.50
2017-11-21T03:51:18.007Z,1.90
2017-11-21T03:53:45.530Z,1.53
2017-11-21T03:56:13.083Z,1.87
2017-11-21T03:58:40.584Z,2.13
2017-11-21T04:01:08.082Z,2.20
2017-11-21T04:03:35.628Z,2.00
2017-11-21T04:06:03.557Z,1.70
2017-11-21T04:08:31.061Z,1.70
2017-11-21T04:10:58.719Z,2.30
2017-11-21T04:13:26.996Z,2.00
2017-11-21T04:15:54.495Z,1.90
2017-11-21T04:18:22.056Z,1.63
2017-11-21T04:20:49.661Z,1.70
2017-11-21T04:23:17.165Z,1.80
2017-11-21T04:25:44.861Z,1.63
2017-11-21T04:28:12.377Z,1.57
2017-11-21T04:30:40.101Z,1.70
2017-11-21T04:33:07.776Z,1.30
2017-11-21T04:35:35.275Z,1.57
2017-11-21T04:38:02.767Z,1.73
2017-11-21T04:40:30.308Z,1.37
2017-11-21T04:42:57.820Z,1.30
2017-11-21T04:45:25.320Z,1.10
2017-11-21T04:47:52.894Z,1.20
2017-11-21T04:50:21.845Z,1.20
2017-11-21T04:52:49.353Z,1.20
2017-11-21T04:55:17.081Z,1.40
2017-11-21T04:57:44.593Z,1.03
2017-11-21T05:00:12.090Z,1.37
2017-11-21T05:02:39.734Z,1.20
2017-11-21T05:05:07.439Z,1.20
2017-11-21T05:07:34.960Z,1.10
2017-11-21T05:10:02.509Z,0.87
2017-11-21T05:12:30.009Z,1.30
2017-11-21T05:14:57.519Z,1.10
2017-11-21T05:17:25.075Z,1.13
2017-11-21T05:19:52.581Z,0.90
2017-11-21T05:22:20.101Z,1.30
2017-11-21T05:24:47.656Z,1.10
2017-11-21T05:27:15.152Z,1.13
2017-11-21T05:29:42.652Z,1.23
2017-11-21T05:32:13.245Z,1.20
2017-11-21T05:34:40.755Z,1.23
2017-11-21T05:37:08.249Z,1.43
2017-11-21T05:39:35.890Z,1.10
2017-11-21T05:42:03.387Z,1.10
2017-11-21T05:44:30.900Z,1.17
2017-11-21T05:46:58.556Z,0.90
2017-11-21T05:49:26.060Z,1.20
2017-11-21T05:51:54.328Z,1.13
2017-11-21T05:54:21.887Z,1.10
2017-11-21T05:56:49.404Z,1.33
2017-11-21T05:59:16.910Z,1.43
2017-11-21T06:01:44.708Z,1.73
2017-11-21T06:04:12.223Z,1.57
2017-11-21T06:06:39.755Z,1.77
2017-11-21T06:09:07.348Z,1.87
2017-11-21T06:11:34.855Z,1.23
2017-11-21T06:14:03.128Z,2.40
2017-11-21T06:16:31.733Z,2.40
2017-11-21T06:18:59.536Z,1.57
2017-11-21T06:21:27.043Z,1.60
2017-11-21T06:23:54.596Z,1.40
2017-11-21T06:26:22.099Z,0.90
2017-11-21T06:28:49.812Z,1.00
2017-11-21T06:31:17.695Z,1.07
2017-11-21T06:33:45.196Z,1.00
2017-11-21T06:36:13.478Z,0.90
2017-11-21T06:38:41.031Z,1.10
2017-11-21T06:41:08.531Z,1.07
2017-11-21T06:43:36.252Z,0.90
2017-11-21T06:46:03.807Z,1.37
2017-11-21T06:48:31.316Z,1.40
2017-11-21T06:50:58.808Z,1.10
2017-11-21T06:53:26.220Z,1.37
2017-11-21T06:55:54.119Z,1.10
2017-11-21T06:58:21.648Z,1.17
2017-11-21T07:00:49.188Z,0.90
2017-11-21T07:03:16.696Z,0.90
2017-11-21T07:05:44.195Z,0.97
2017-11-21T07:08:11.850Z,1.00
2017-11-21T07:10:39.359Z,1.10
2017-11-21T07:13:06.865Z,1.13
2017-11-21T07:15:34.426Z,0.90
2017-11-21T07:18:02.108Z,2.70
2017-11-21T07:20:30.440Z,1.00
2017-11-21T07:22:58.115Z,1.00
2017-11-21T07:25:25.615Z,0.83
2017-11-21T07:27:53.111Z,1.30
2017-11-21T07:30:20.732Z,1.13
2017-11-21T07:32:48.238Z,1.33
2017-11-21T07:35:15.565Z,1.17
2017-11-21T07:37:43.069Z,1.10
2017-11-21T07:40:10.571Z,1.33
2017-11-21T07:42:38.120Z,1.57
2017-11-21T07:45:06.385Z,1.10
2017-11-21T07:47:34.652Z,0.90
2017-11-21T07:50:02.213Z,1.10
2017-11-21T07:52:29.727Z,1.30
2017-11-21T07:54:57.224Z,1.40
2017-11-21T07:57:24.805Z,1.00
2017-11-21T07:59:52.310Z,1.20
2017-11-21T08:02:19.811Z,1.30
2017-11-21T08:04:47.361Z,1.13
2017-11-21T08:07:15.220Z,1.17
2017-11-21T08:09:42.726Z,1.00
2017-11-21T08:12:10.300Z,1.20
2017-11-21T08:14:37.803Z,1.33
2017-11-21T08:17:05.307Z,1.50
2017-11-21T08:19:32.869Z,1.60
2017-11-21T08:22:00.369Z,2.00
2017-11-21T08:24:27.879Z,2.13
2017-11-21T08:26:55.437Z,1.93
2017-11-21T08:29:22.936Z,1.83
2017-11-21T08:31:50.435Z,1.87
2017-11-21T08:34:17.992Z,1.73
2017-11-21T08:36:46.264Z,1.53
2017-11-21T08:39:13.767Z,1.97
2017-11-21T08:41:41.299Z,1.57
2017-11-21T08:44:08.800Z,1.73
2017-11-21T08:46:36.304Z,1.80
2017-11-21T08:49:05.268Z,1.50
2017-11-21T08:51:32.781Z,1.70
2017-11-21T08:54:00.276Z,2.10
2017-11-21T08:56:27.843Z,2.53
2017-11-21T08:58:55.340Z,2.53
2017-11-21T09:01:22.835Z,4.23
2017-11-21T09:03:50.388Z,2.87
2017-11-21T09:06:17.888Z,2.80
2017-11-21T09:08:45.393Z,2.80
2017-11-21T09:11:12.959Z,2.53
2017-11-21T09:13:40.456Z,2.50
2017-11-21T09:16:07.957Z,6.80
2017-11-21T09:18:35.509Z,3.10
2017-11-21T09:21:03.783Z,3.97
2017-11-21T09:23:31.313Z,4.50
2017-11-21T09:25:58.868Z,2.37
2017-11-21T09:28:26.376Z,4.60
2017-11-21T09:30:53.880Z,4.77
2017-11-21T09:33:21.436Z,3.47
2017-11-21T09:35:48.941Z,2.87
2017-11-21T09:38:17.205Z,2.53
2017-11-21T09:40:45.540Z,2.60
2017-11-21T09:43:13.036Z,3.20
2017-11-21T09:45:40.531Z,2.30
2017-11-21T09:48:08.081Z,2.50
2017-11-21T09:50:35.594Z,2.20
2017-11-21T09:53:03.090Z,3.50
2017-11-21T09:55:30.700Z,4.00
2017-11-21T09:57:57.963Z,5.93
2017-11-21T10:00:25.544Z,3.47
2017-11-21T10:02:53.109Z,3.33
2017-11-21T10:05:20.612Z,2.57
2017-11-21T10:07:48.107Z,2.70
2017-11-21T10:10:15.665Z,2.30
2017-11-21T10:12:43.163Z,2.90
2017-11-21T10:15:10.663Z,3.67
2017-11-21T10:17:38.227Z,3.90
2017-11-21T10:20:05.741Z,3.80
2017-11-21T10:22:33.236Z,2.43
2017-11-21T10:25:00.772Z,2.70
2017-11-21T10:27:28.280Z,4.27
2017-11-21T10:29:55.824Z,3.80
2017-11-21T10:32:23.368Z,4.50
2017-11-21T10:34:50.867Z,4.83
2017-11-21T10:37:18.359Z,3.20
2017-11-21T10:39:45.907Z,3.40
2017-11-21T10:42:13.439Z,3.27
2017-11-21T10:44:41.031Z,3.03
2017-11-21T10:47:08.897Z,4.03
2017-11-21T10:49:36.396Z,3.63
2017-11-21T10:52:03.957Z,3.07
2017-11-21T10:54:31.464Z,2.80
2017-11-21T10:56:58.968Z,2.93
2017-11-21T10:59:26.529Z,3.60
2017-11-21T11:01:54.030Z,3.67
2017-11-21T11:04:21.526Z,3.03
2017-11-21T11:06:49.289Z,3.90
2017-11-21T11:09:16.868Z,3.53
2017-11-21T11:11:44.390Z,3.60
2017-11-21T11:14:11.988Z,4.60
2017-11-21T11:16:39.511Z,3.83
2017-11-21T11:19:07.060Z,5.03
2017-11-21T11:21:35.253Z,5.23
2017-11-21T11:24:02.762Z,4.80
2017-11-21T11:26:30.523Z,3.90
2017-11-21T11:28:58.174Z,4.00
2017-11-21T11:31:25.819Z,4.37
2017-11-21T11:33:53.332Z,3.47
2017-11-21T11:36:20.907Z,4.20
2017-11-21T11:38:48.403Z,2.80
2017-11-21T11:41:15.903Z,4.50
2017-11-21T11:43:43.464Z,2.77
2017-11-21T11:46:10.968Z,3.23
2017-11-21T11:48:39.476Z,3.20
2017-11-21T11:51:08.514Z,2.27
2017-11-21T11:53:37.659Z,2.73
2017-11-21T11:56:05.254Z,4.63
2017-11-21T11:58:32.773Z,2.73
2017-11-21T12:01:00.272Z,2.17
2017-11-21T12:03:28.172Z,2.17
2017-11-21T12:05:55.672Z,3.03
2017-11-21T12:08:23.185Z,3.50
2017-11-21T12:10:50.738Z,3.47
2017-11-21T12:13:18.244Z,3.20
2017-11-21T12:15:45.752Z,6.33
2017-11-21T12:18:13.311Z,4.93
2017-11-21T12:20:40.822Z,2.53
2017-11-21T12:23:08.349Z,46.00
2017-11-21T12:25:35.896Z,19.57
2017-11-21T12:28:03.431Z,3.97
2017-11-21T12:30:31.702Z,4.50
2017-11-21T12:32:59.383Z,3.80
2017-11-21T12:35:27.743Z,3.50
2017-11-21T12:37:55.452Z,4.23
2017-11-21T12:40:22.972Z,3.90
2017-11-21T12:42:51.292Z,3.67
2017-11-21T12:45:18.623Z,3.60
2017-11-21T12:47:46.288Z,4.90
2017-11-21T12:50:13.868Z,4.00
2017-11-21T12:52:41.816Z,3.90
2017-11-21T12:55:09.436Z,4.17
2017-11-21T12:57:36.948Z,4.43
2017-11-21T13:00:04.521Z,3.70
2017-11-21T13:02:32.028Z,3.67
2017-11-21T13:04:59.957Z,3.87
2017-11-21T13:07:27.658Z,3.37
2017-11-21T13:09:55.163Z,4.07
2017-11-21T13:12:22.667Z,4.07
2017-11-21T13:14:50.242Z,3.80
2017-11-21T13:17:18.524Z,4.00
2017-11-21T13:19:46.796Z,3.03
2017-11-21T13:22:15.111Z,3.37
2017-11-21T13:24:42.613Z,5.47
2017-11-21T13:27:10.122Z,3.80
2017-11-21T13:29:37.699Z,4.03
2017-11-21T13:32:05.220Z,2.97
2017-11-21T13:34:32.724Z,2.70
2017-11-21T13:37:00.619Z,2.53
2017-11-21T13:39:28.124Z,2.60
2017-11-21T13:41:55.931Z,3.00
2017-11-21T13:44:23.549Z,1.97
2017-11-21T13:46:50.820Z,2.20
2017-11-21T13:49:18.339Z,13.57
2017-11-21T13:51:46.673Z,5.80
2017-11-21T13:54:14.396Z,19.17
2017-11-21T13:56:41.941Z,9.90
2017-11-21T13:59:09.611Z,2.00
2017-11-21T14:01:37.567Z,2.50
2017-11-21T14:04:05.068Z,2.27
2017-11-21T14:06:32.603Z,2.10
2017-11-21T14:09:00.161Z,3.00
2017-11-21T14:11:27.680Z,3.00
2017-11-21T14:13:55.184Z,2.83
2017-11-21T14:16:22.740Z,2.80
2017-11-21T14:18:50.260Z,3.00
2017-11-21T14:21:17.759Z,2.80
2017-11-21T14:23:45.311Z,2.60
2017-11-21T14:26:12.820Z,2.70
2017-11-21T14:28:40.324Z,2.37
2017-11-21T14:31:07.875Z,2.53
2017-11-21T14:33:35.376Z,3.50
2017-11-21T14:36:02.883Z,4.00
2017-11-21T14:38:32.040Z,4.80
2017-11-21T14:41:00.320Z,8.87
2017-11-21T14:43:27.604Z,7.77
2017-11-21T14:45:55.247Z,11.07
2017-11-21T14:48:22.832Z,13.50
2017-11-21T14:50:51.120Z,4.17
2017-11-21T14:53:18.660Z,5.30
2017-11-21T14:55:46.371Z,4.57
2017-11-21T14:58:13.872Z,4.80
2017-11-21T15:00:41.532Z,3.87
2017-11-21T15:03:09.081Z,4.13
2017-11-21T15:05:36.441Z,4.10
2017-11-21T15:08:03.948Z,4.00
2017-11-21T15:10:31.459Z,3.37
2017-11-21T15:12:59.637Z,2.93
2017-11-21T15:15:27.908Z,6.27
2017-11-21T15:17:55.504Z,3.70
2017-11-21T15:20:23.690Z,3.17
2017-11-21T15:22:51.947Z,4.60
2017-11-21T15:25:21.113Z,4.50
2017-11-21T15:27:48.664Z,4.27
2017-11-21T15:30:16.176Z,5.27
2017-11-21T15:32:44.369Z,3.80
2017-11-21T15:35:12.808Z,3.13
2017-11-21T15:37:41.071Z,4.43
2017-11-21T15:40:09.601Z,3.10
2017-11-21T15:42:37.901Z,4.80
2017-11-21T15:45:05.848Z,3.60
2017-11-21T15:47:33.442Z,3.83
2017-11-21T15:50:00.950Z,5.33
2017-11-21T15:52:29.225Z,6.17
2017-11-21T15:54:57.340Z,6.33
2017-11-21T15:57:25.600Z,14.60
2017-11-21T15:59:53.880Z,11.70
2017-11-21T16:02:21.629Z,8.03
2017-11-21T16:04:49.140Z,6.20
2017-11-21T16:07:16.911Z,4.93
2017-11-21T16:09:44.536Z,7.23
2017-11-21T16:12:12.124Z,5.83
2017-11-21T16:14:39.631Z,7.40
2017-11-21T16:17:07.159Z,12.47
2017-11-21T16:19:34.804Z,21.73
2017-11-21T16:22:02.313Z,26.07
2017-11-21T16:24:29.929Z,47.23
2017-11-21T16:26:57.541Z,48.73
2017-11-21T16:29:25.152Z,32.80
2017-11-21T16:31:52.724Z,18.10
2017-11-21T16:34:20.831Z,15.83
2017-11-21T16:36:48.373Z,18.90
2017-11-21T16:39:16.007Z,13.47
2017-11-21T16:41:43.684Z,18.33
2017-11-21T16:44:11.363Z,22.40
2017-11-21T16:46:38.868Z,11.10
2017-11-21T16:49:06.777Z,11.83
2017-11-21T16:51:34.390Z,9.30
2017-11-21T16:54:01.921Z,36.37
2017-11-21T16:56:29.595Z,38.20
2017-11-21T16:58:57.119Z,31.23
2017-11-21T17:01:25.311Z,17.50
2017-11-21T17:03:52.825Z,24.60
2017-11-21T17:06:20.395Z,24.47
2017-11-21T17:08:47.925Z,33.37
2017-11-21T17:11:15.514Z,42.60
2017-11-21T17:13:43.036Z,49.40
2017-11-21T17:16:10.544Z,32.83
2017-11-21T17:18:39.056Z,29.70
2017-11-21T17:21:06.716Z,21.80
2017-11-21T17:23:34.455Z,13.53
2017-11-21T17:26:02.013Z,14.47
2017-11-21T17:28:30.284Z,13.23
2017-11-21T17:30:58.695Z,12.40
2017-11-21T17:33:27.008Z,11.63
2017-11-21T17:35:54.739Z,14.53
2017-11-21T17:38:22.271Z,17.63
2017-11-21T17:40:49.835Z,37.40
2017-11-21T17:43:18.241Z,59.27
2017-11-21T17:45:45.752Z,49.13
2017-11-21T17:48:13.332Z,72.07
2017-11-21T17:50:41.057Z,33.50
2017-11-21T17:53:08.575Z,33.17
2017-11-21T17:55:36.148Z,32.70
2017-11-21T17:58:03.684Z,13.00
2017-11-21T18:00:31.261Z,12.40
2017-11-21T18:02:58.909Z,14.40
2017-11-21T18:05:26.410Z,16.97
2017-11-21T18:07:54.078Z,17.80
2017-11-21T18:10:21.752Z,12.07
2017-11-21T18:12:49.683Z,16.77
2017-11-21T18:15:17.191Z,16.77
2017-11-21T18:17:45.718Z,13.80
2017-11-21T18:20:13.233Z,16.47
2017-11-21T18:22:40.740Z,22.53
2017-11-21T18:25:08.317Z,22.83
2017-11-21T18:27:35.881Z,25.67
2017-11-21T18:30:03.400Z,22.07
2017-11-21T18:32:31.343Z,19.70
2017-11-21T18:34:59.695Z,9.83
2017-11-21T18:37:27.256Z,8.13
2017-11-21T18:39:54.804Z,8.73
2017-11-21T18:42:22.314Z,10.97
2017-11-21T18:44:49.864Z,11.80
2017-11-21T18:47:18.189Z,13.37
2017-11-21T18:49:45.716Z,14.93
2017-11-21T18:52:13.229Z,15.37
2017-11-21T18:54:40.865Z,15.40
2017-11-21T18:57:08.371Z,18.00
2017-11-21T18:59:35.880Z,16.13
2017-11-21T19:02:04.063Z,12.80
2017-11-21T19:04:31.574Z,14.97
2017-11-21T19:06:59.084Z,14.73
2017-11-21T19:09:26.660Z,17.37
2017-11-21T19:11:54.744Z,16.93
2017-11-21T19:14:22.372Z,18.07
2017-11-21T19:16:50.005Z,19.10
2017-11-21T19:19:17.548Z,17.13
2017-11-21T19:21:45.253Z,17.73
2017-11-21T19:24:12.987Z,17.90
2017-11-21T19:26:40.568Z,19.50
2017-11-21T19:29:08.553Z,19.27
2017-11-21T19:31:36.124Z,19.90
2017-11-21T19:34:03.723Z,19.50
2017-11-21T19:36:32.020Z,19.70
2017-11-21T19:38:59.547Z,19.90
2017-11-21T19:41:27.108Z,19.97
2017-11-21T19:43:55.380Z,21.53
2017-11-21T19:46:22.884Z,23.10
2017-11-21T19:48:50.788Z,22.30
2017-11-21T19:51:18.298Z,23.87
2017-11-21T19:53:45.809Z,22.00
2017-11-21T19:56:13.364Z,25.70
2017-11-21T19:58:41.008Z,26.30
2017-11-21T20:01:08.513Z,25.93
2017-11-21T20:03:36.093Z,26.80
2017-11-21T20:06:03.611Z,30.00
2017-11-21T20:08:31.111Z,31.23
2017-11-21T20:10:58.675Z,29.10
2017-11-21T20:13:26.255Z,29.90
2017-11-21T20:15:53.844Z,31.07
2017-11-21T20:18:21.353Z,29.47
2017-11-21T20:20:48.995Z,33.07
2017-11-21T20:23:16.571Z,36.37
2017-11-21T20:25:44.255Z,36.07
2017-11-21T20:28:12.057Z,35.00
2017-11-21T20:30:39.571Z,39.37
2017-11-21T20:33:07.072Z,40.40
2017-11-21T20:35:34.629Z,43.80
2017-11-21T20:38:02.148Z,40.50
2017-11-21T20:40:29.647Z,39.00
2017-11-21T20:42:57.229Z,37.30
2017-11-21T20:45:25.495Z,35.73
2017-11-21T20:47:52.993Z,36.57
2017-11-21T20:50:20.536Z,40.17
2017-11-21T20:52:48.051Z,50.80
2017-11-21T20:55:15.565Z,50.43
2017-11-21T20:57:43.128Z,59.73
2017-11-21T21:00:10.643Z,73.13
2017-11-21T21:02:38.159Z,70.10
2017-11-21T21:05:05.853Z,60.33
2017-11-21T21:07:33.367Z,50.77
2017-11-21T21:10:01.162Z,52.03
2017-11-21T21:12:28.678Z,54.07
2017-11-21T21:14:56.235Z,51.77
2017-11-21T21:17:23.787Z,54.40
2017-11-21T21:19:51.296Z,48.77
2017-11-21T21:22:18.889Z,50.63
2017-11-21T21:24:46.673Z,53.77
2017-11-21T21:27:26.656Z,51.90
2017-11-21T21:29:54.159Z,50.17
2017-11-21T21:32:21.670Z,45.70
2017-11-21T21:34:49.215Z,46.60
2017-11-21T21:37:16.728Z,49.67
2017-11-21T21:39:44.235Z,47.17
2017-11-21T21:42:11.792Z,47.80
2017-11-21T21:44:39.308Z,50.23
2017-11-21T21:47:06.816Z,53.60
2017-11-21T21:49:34.355Z,44.10
2017-11-21T21:52:02.632Z,40.30
2017-11-21T21:54:30.904Z,49.20
2017-11-21T21:56:58.623Z,55.17
2017-11-21T21:59:26.898Z,48.87
2017-11-21T22:01:54.635Z,41.80
2017-11-21T22:04:22.187Z,36.70
2017-11-21T22:09:43.761Z,36.43
2017-11-21T22:12:11.941Z,31.83
2017-11-21T22:14:40.167Z,28.93
2017-11-21T22:17:08.561Z,29.40
2017-11-21T22:19:36.088Z,27.27
2017-11-21T22:22:03.665Z,26.70
2017-11-21T22:24:32.591Z,22.20
2017-11-21T22:27:00.785Z,21.57
2017-11-21T22:29:29.020Z,20.37
2017-11-21T22:31:56.532Z,20.23
2017-11-21T22:34:24.040Z,21.27
2017-11-21T22:36:52.276Z,23.23
2017-11-21T22:39:20.596Z,24.83
2017-11-21T22:41:48.748Z,23.77
2017-11-21T22:44:16.308Z,22.60
2017-11-21T22:46:44.103Z,22.37
2017-11-21T22:49:11.896Z,22.10
2017-11-21T22:51:39.520Z,20.27
2017-11-21T22:54:07.030Z,18.90
2017-11-21T22:56:36.052Z,18.40
2017-11-21T22:59:05.086Z,19.47
2017-11-21T23:01:32.601Z,20.30
2017-11-21T23:04:00.112Z,20.33
2017-11-21T23:06:27.900Z,18.63
2017-11-21T23:08:55.416Z,19.77
2017-11-21T23:11:23.556Z,19.97
2017-11-21T23:13:51.551Z,20.37
2017-11-21T23:16:19.065Z,20.13
2017-11-21T23:18:47.364Z,18.80
2017-11-21T23:21:14.931Z,19.87
2017-11-21T23:23:42.449Z,19.03
2017-11-21T23:26:10.796Z,20.10
2017-11-21T23:28:38.348Z,18.00
2017-11-21T23:31:05.858Z,18.07
2017-11-21T23:33:33.360Z,19.10
2017-11-21T23:36:00.917Z,18.23
2017-11-21T23:38:28.425Z,19.00
2017-11-21T23:40:55.937Z,19.57
2017-11-21T23:43:23.516Z,18.57
2017-11-21T23:45:51.274Z,19.53
2017-11-21T23:48:18.797Z,19.70
2017-11-21T23:50:46.364Z,17.13
2017-11-21T23:53:14.361Z,17.47
2017-11-21T23:55:41.869Z,18.90
2017-11-21T23:58:09.485Z,17.60
